createdAt,value
2018-04-19T00:02:15.415Z,16.78
2018-04-19T00:04:43.071Z,16.83
2018-04-19T00:07:10.715Z,16.61
2018-04-19T00:09:38.378Z,16.65
2018-04-19T00:12:05.978Z,16.60
2018-04-19T00:14:33.637Z,16.65
2018-04-19T00:17:01.259Z,16.52
2018-04-19T00:19:28.949Z,16.43
2018-04-19T00:21:56.571Z,16.38
2018-04-19T00:24:24.241Z,16.38
2018-04-19T00:26:51.895Z,16.32
2018-04-19T00:29:19.654Z,16.22
2018-04-19T00:31:47.329Z,16.22
2018-04-19T00:34:14.999Z,16.16
2018-04-19T00:36:42.614Z,16.19
2018-04-19T00:39:10.282Z,16.19
2018-04-19T00:41:37.890Z,16.19
2018-04-19T00:44:05.557Z,16.17
2018-04-19T00:46:33.298Z,16.11
2018-04-19T00:49:00.926Z,16.10
2018-04-19T00:51:28.591Z,16.17
2018-04-19T00:53:56.231Z,16.04
2018-04-19T00:56:23.880Z,16.00
2018-04-19T00:58:51.515Z,15.88
2018-04-19T01:01:19.168Z,15.92
2018-04-19T01:03:46.801Z,15.93
2018-04-19T01:06:14.487Z,15.91
2018-04-19T01:08:42.100Z,15.78
2018-04-19T01:11:09.758Z,15.78
2018-04-19T01:13:37.385Z,15.77
2018-04-19T01:16:05.052Z,15.76
2018-04-19T01:18:32.667Z,15.73
2018-04-19T01:21:00.402Z,15.71
2018-04-19T01:23:28.006Z,15.67
2018-04-19T01:25:55.654Z,15.70
2018-04-19T01:28:23.308Z,15.60
2018-04-19T01:30:50.960Z,15.62
2018-04-19T01:33:18.589Z,15.61
2018-04-19T01:35:58.088Z,15.57
2018-04-19T01:38:25.696Z,15.47
2018-04-19T01:40:53.347Z,15.50
2018-04-19T01:43:21.027Z,15.41
2018-04-19T01:45:48.700Z,15.36
2018-04-19T01:48:16.307Z,15.32
2018-04-19T01:50:43.971Z,15.29
2018-04-19T01:53:11.587Z,15.17
2018-04-19T01:55:39.250Z,15.17
2018-04-19T01:58:06.881Z,15.19
2018-04-19T02:00:34.548Z,15.20
2018-04-19T02:03:02.154Z,15.12
2018-04-19T02:05:29.817Z,15.09
2018-04-19T02:07:57.434Z,14.98
2018-04-19T02:10:25.091Z,14.98
2018-04-19T02:12:52.699Z,14.93
2018-04-19T02:15:20.367Z,14.98
2018-04-19T02:17:47.992Z,14.89
2018-04-19T02:20:15.655Z,14.83
2018-04-19T02:22:43.279Z,14.84
2018-04-19T02:25:10.935Z,14.75
2018-04-19T02:27:38.571Z,14.72
2018-04-19T02:30:06.224Z,14.72
2018-04-19T02:32:33.828Z,14.61
2018-04-19T02:35:01.607Z,14.47
2018-04-19T02:37:29.231Z,14.59
2018-04-19T02:39:56.887Z,14.61
2018-04-19T02:42:24.504Z,14.60
2018-04-19T02:44:52.163Z,14.59
2018-04-19T02:47:19.768Z,14.55
2018-04-19T02:49:47.431Z,14.55
2018-04-19T02:52:15.055Z,14.45
2018-04-19T02:54:42.715Z,14.27
2018-04-19T02:57:10.325Z,14.32
2018-04-19T02:59:38.002Z,14.35
2018-04-19T03:02:05.616Z,14.20
2018-04-19T03:04:33.263Z,14.23
2018-04-19T03:07:00.920Z,14.32
2018-04-19T03:09:28.558Z,14.16
2018-04-19T03:11:56.237Z,14.11
2018-04-19T03:14:23.847Z,14.12
2018-04-19T03:16:51.504Z,14.16
2018-04-19T03:19:19.128Z,14.22
2018-04-19T03:21:46.795Z,14.19
2018-04-19T03:24:14.402Z,14.15
2018-04-19T03:26:42.087Z,13.90
2018-04-19T03:29:09.715Z,14.00
2018-04-19T03:31:37.380Z,13.95
2018-04-19T03:34:05.051Z,13.95
2018-04-19T03:36:32.719Z,13.89
2018-04-19T03:39:00.349Z,13.89
2018-04-19T03:41:28.050Z,13.91
2018-04-19T03:43:55.658Z,13.91
2018-04-19T03:46:23.315Z,13.85
2018-04-19T03:48:50.969Z,13.87
2018-04-19T03:51:18.620Z,13.81
2018-04-19T03:53:46.270Z,13.81
2018-04-19T03:56:13.998Z,13.66
2018-04-19T03:58:41.618Z,13.70
2018-04-19T04:01:09.283Z,13.57
2018-04-19T04:03:36.907Z,13.63
2018-04-19T04:06:04.621Z,13.65
2018-04-19T04:08:32.234Z,13.49
2018-04-19T04:10:59.882Z,13.47
2018-04-19T04:13:27.511Z,13.54
2018-04-19T04:15:55.171Z,13.57
2018-04-19T04:18:34.699Z,13.48
2018-04-19T04:21:14.967Z,13.43
2018-04-19T04:23:52.473Z,13.41
2018-04-19T04:26:20.145Z,13.42
2018-04-19T04:28:47.769Z,13.43
2018-04-19T04:31:15.503Z,13.45
2018-04-19T04:33:43.112Z,13.45
2018-04-19T04:36:10.794Z,13.50
2018-04-19T04:38:38.411Z,13.00
2018-04-19T04:41:06.103Z,13.35
2018-04-19T04:43:33.731Z,13.44
2018-04-19T04:46:01.392Z,13.67
2018-04-19T04:48:29.032Z,13.76
2018-04-19T04:50:56.751Z,13.93
2018-04-19T04:53:24.417Z,14.14
2018-04-19T04:55:52.080Z,14.25
2018-04-19T04:58:19.727Z,14.32
2018-04-19T05:00:47.396Z,14.42
2018-04-19T05:03:15.006Z,14.68
2018-04-19T05:05:42.678Z,14.75
2018-04-19T05:08:10.331Z,14.99
2018-04-19T05:10:37.991Z,15.21
2018-04-19T05:13:05.620Z,15.25
2018-04-19T05:15:33.391Z,15.31
2018-04-19T05:18:01.014Z,15.43
2018-04-19T05:20:28.675Z,15.29
2018-04-19T05:22:56.283Z,15.69
2018-04-19T05:25:23.890Z,15.80
2018-04-19T05:27:51.550Z,16.07
2018-04-19T05:30:19.197Z,16.05
2018-04-19T05:32:46.895Z,16.33
2018-04-19T05:35:14.519Z,16.45
2018-04-19T05:37:42.422Z,16.46
2018-04-19T05:40:10.085Z,16.65
2018-04-19T05:42:37.803Z,16.36
2018-04-19T05:45:05.409Z,16.82
2018-04-19T05:47:33.080Z,16.86
2018-04-19T05:50:00.700Z,17.12
2018-04-19T05:52:28.431Z,17.08
2018-04-19T05:54:56.072Z,17.51
2018-04-19T05:57:23.787Z,17.87
2018-04-19T05:59:51.423Z,18.06
2018-04-19T06:02:19.194Z,18.24
2018-04-19T06:04:46.864Z,18.26
2018-04-19T06:07:14.531Z,18.69
2018-04-19T06:09:42.143Z,18.89
2018-04-19T06:12:09.926Z,19.07
2018-04-19T06:14:37.550Z,19.14
2018-04-19T06:17:05.245Z,19.54
2018-04-19T06:19:32.930Z,19.38
2018-04-19T06:22:00.619Z,19.59
2018-04-19T06:24:28.234Z,19.87
2018-04-19T06:26:55.895Z,19.91
2018-04-19T06:29:23.510Z,19.62
2018-04-19T06:31:51.172Z,19.61
2018-04-19T06:34:18.780Z,19.94
2018-04-19T06:36:46.435Z,20.19
2018-04-19T06:39:14.054Z,20.36
2018-04-19T06:41:41.710Z,20.72
2018-04-19T06:44:09.364Z,21.00
2018-04-19T06:46:37.090Z,21.63
2018-04-19T06:49:04.740Z,21.76
2018-04-19T06:51:32.402Z,21.77
2018-04-19T06:54:00.049Z,21.58
2018-04-19T06:56:27.704Z,21.87
2018-04-19T06:58:55.328Z,21.73
2018-04-19T07:01:22.990Z,22.21
2018-04-19T07:03:50.607Z,21.72
2018-04-19T07:06:18.271Z,22.40
2018-04-19T07:08:45.902Z,23.38
2018-04-19T07:11:13.548Z,23.34
2018-04-19T07:13:41.162Z,23.54
2018-04-19T07:16:08.810Z,23.63
2018-04-19T07:18:36.419Z,23.14
2018-04-19T07:21:04.087Z,23.51
2018-04-19T07:23:31.727Z,24.09
2018-04-19T07:25:59.388Z,24.64
2018-04-19T07:28:27.000Z,24.11
2018-04-19T07:30:54.715Z,22.38
2018-04-19T07:33:22.353Z,22.10
2018-04-19T07:35:50.093Z,21.22
2018-04-19T07:38:17.957Z,21.39
2018-04-19T07:40:45.722Z,22.11
2018-04-19T07:43:13.384Z,21.44
2018-04-19T07:45:41.148Z,21.48
2018-04-19T07:48:08.855Z,21.71
2018-04-19T07:50:36.569Z,21.92
2018-04-19T07:53:04.513Z,21.48
2018-04-19T07:55:32.307Z,21.53
2018-04-19T07:58:00.175Z,21.78
2018-04-19T08:00:27.938Z,22.21
2018-04-19T08:02:55.704Z,22.13
2018-04-19T08:05:23.481Z,22.32
2018-04-19T08:07:51.239Z,22.26
2018-04-19T08:10:19.005Z,22.30
2018-04-19T08:12:46.821Z,22.48
2018-04-19T08:15:14.629Z,23.02
2018-04-19T08:17:42.496Z,22.78
2018-04-19T08:20:10.236Z,23.03
2018-04-19T08:22:38.028Z,23.41
2018-04-19T08:25:05.789Z,23.45
2018-04-19T08:27:33.657Z,23.02
2018-04-19T08:30:01.420Z,22.94
2018-04-19T08:32:29.235Z,23.23
2018-04-19T08:34:57.056Z,23.23
2018-04-19T08:37:24.920Z,23.48
2018-04-19T08:39:52.684Z,23.34
2018-04-19T08:42:20.562Z,23.48
2018-04-19T08:44:48.314Z,23.84
2018-04-19T08:47:16.077Z,24.07
2018-04-19T08:49:43.801Z,24.49
2018-04-19T08:52:11.710Z,24.42
2018-04-19T08:54:39.374Z,25.01
2018-04-19T08:57:07.133Z,25.35
2018-04-19T08:59:34.995Z,24.70
2018-04-19T09:02:02.665Z,24.95
2018-04-19T09:04:30.341Z,24.89
2018-04-19T09:06:58.158Z,25.04
2018-04-19T09:09:25.972Z,24.88
2018-04-19T09:11:53.838Z,24.79
2018-04-19T09:14:21.698Z,25.03
2018-04-19T09:16:49.422Z,25.31
2018-04-19T09:19:17.230Z,25.43
2018-04-19T09:21:44.948Z,25.51
2018-04-19T09:24:12.692Z,25.66
2018-04-19T09:26:40.518Z,25.80
2018-04-19T09:29:08.383Z,25.79
2018-04-19T09:31:36.151Z,25.71
2018-04-19T09:34:03.960Z,25.50
2018-04-19T09:36:31.793Z,25.51
2018-04-19T09:38:59.654Z,25.21
2018-04-19T09:41:27.410Z,25.71
2018-04-19T09:43:55.278Z,26.22
2018-04-19T09:46:22.939Z,25.79
2018-04-19T09:48:50.778Z,26.20
2018-04-19T09:51:23.592Z,26.72
2018-04-19T09:53:51.611Z,26.41
2018-04-19T09:56:19.423Z,26.01
2018-04-19T09:58:51.183Z,26.99
2018-04-19T10:01:18.867Z,27.03
2018-04-19T10:03:46.711Z,26.53
2018-04-19T10:06:14.608Z,26.84
2018-04-19T10:08:42.445Z,27.37
2018-04-19T10:11:10.168Z,27.04
2018-04-19T10:13:37.938Z,27.20
2018-04-19T10:16:05.668Z,26.25
2018-04-19T10:18:33.505Z,27.28
2018-04-19T10:21:01.266Z,27.45
2018-04-19T10:23:29.036Z,27.51
2018-04-19T10:25:56.794Z,26.80
2018-04-19T10:28:24.516Z,26.96
2018-04-19T10:30:52.287Z,26.68
2018-04-19T10:33:20.090Z,26.74
2018-04-19T10:35:47.957Z,26.87
2018-04-19T10:38:15.694Z,27.30
2018-04-19T10:40:43.588Z,26.98
2018-04-19T10:43:11.455Z,26.82
2018-04-19T10:45:39.284Z,26.96
2018-04-19T10:48:06.985Z,26.81
2018-04-19T10:50:34.763Z,27.30
2018-04-19T10:53:02.593Z,26.86
2018-04-19T10:55:30.486Z,26.32
2018-04-19T10:57:58.260Z,26.00
2018-04-19T11:00:26.144Z,26.46
2018-04-19T11:02:53.981Z,27.19
2018-04-19T11:05:21.848Z,27.04
2018-04-19T11:07:49.612Z,26.79
2018-04-19T11:10:17.443Z,26.80
2018-04-19T11:12:45.142Z,26.69
2018-04-19T11:15:13.006Z,26.77
2018-04-19T11:17:40.771Z,27.30
2018-04-19T11:20:08.639Z,28.05
2018-04-19T11:22:36.418Z,28.40
2018-04-19T11:25:04.180Z,28.18
2018-04-19T11:27:32.040Z,27.46
2018-04-19T11:29:59.901Z,28.01
2018-04-19T11:32:27.666Z,27.33
2018-04-19T11:34:55.329Z,27.96
2018-04-19T11:37:23.193Z,28.04
2018-04-19T11:39:50.863Z,27.48
2018-04-19T11:42:18.726Z,27.56
2018-04-19T11:44:46.385Z,28.77
2018-04-19T11:47:14.251Z,28.72
2018-04-19T11:49:41.964Z,28.58
2018-04-19T11:52:09.674Z,28.52
2018-04-19T11:54:37.394Z,28.06
2018-04-19T11:57:05.515Z,27.66
2018-04-19T11:59:33.383Z,27.52
2018-04-19T12:02:01.159Z,28.55
2018-04-19T12:04:28.912Z,28.58
2018-04-19T12:06:56.574Z,28.73
2018-04-19T12:09:24.321Z,28.26
2018-04-19T12:11:52.001Z,28.86
2018-04-19T12:14:19.802Z,29.50
2018-04-19T12:16:47.427Z,28.74
2018-04-19T12:19:15.241Z,28.80
2018-04-19T12:21:43.162Z,29.17
2018-04-19T12:24:10.927Z,29.96
2018-04-19T12:26:39.820Z,29.27
2018-04-19T12:29:07.690Z,29.14
2018-04-19T12:31:35.448Z,29.08
2018-04-19T12:34:03.628Z,28.76
2018-04-19T12:36:31.486Z,28.82
2018-04-19T12:38:59.358Z,28.34
2018-04-19T12:41:27.432Z,28.73
2018-04-19T12:43:55.988Z,28.89
2018-04-19T12:46:23.741Z,28.85
2018-04-19T12:48:51.642Z,29.47
2018-04-19T12:51:19.304Z,29.90
2018-04-19T12:53:47.172Z,30.57
2018-04-19T12:56:14.903Z,29.47
2018-04-19T12:58:42.642Z,30.09
2018-04-19T13:01:10.258Z,30.07
2018-04-19T13:03:37.977Z,29.99
2018-04-19T13:06:05.711Z,29.99
2018-04-19T13:08:33.669Z,30.31
2018-04-19T13:11:01.511Z,30.43
2018-04-19T13:13:29.291Z,30.81
2018-04-19T13:15:57.052Z,30.90
2018-04-19T13:18:24.917Z,30.14
2018-04-19T13:20:52.685Z,29.55
2018-04-19T13:23:20.552Z,30.96
2018-04-19T13:25:48.354Z,31.11
2018-04-19T13:28:16.181Z,31.05
2018-04-19T13:30:43.945Z,31.35
2018-04-19T13:33:11.812Z,31.05
2018-04-19T13:35:39.552Z,30.76
2018-04-19T13:38:07.343Z,31.03
2018-04-19T13:40:35.106Z,31.16
2018-04-19T13:43:02.871Z,30.85
2018-04-19T13:45:30.599Z,30.39
2018-04-19T13:47:58.399Z,30.03
2018-04-19T13:50:26.071Z,29.88
2018-04-19T13:52:53.719Z,29.68
2018-04-19T13:55:21.318Z,29.88
2018-04-19T13:57:48.982Z,30.10
2018-04-19T14:00:16.604Z,30.03
2018-04-19T14:02:44.259Z,30.28
2018-04-19T14:05:11.880Z,30.21
2018-04-19T14:07:39.539Z,30.18
2018-04-19T14:10:07.184Z,30.14
2018-04-19T14:12:34.890Z,30.40
2018-04-19T14:15:02.524Z,30.62
2018-04-19T14:17:30.211Z,30.38
2018-04-19T14:19:58.031Z,30.36
2018-04-19T14:22:25.667Z,30.34
2018-04-19T14:24:53.343Z,30.13
2018-04-19T14:27:20.963Z,30.37
2018-04-19T14:29:48.610Z,29.57
2018-04-19T14:32:16.223Z,30.04
2018-04-19T14:34:43.876Z,30.34
2018-04-19T14:37:11.487Z,29.97
2018-04-19T14:39:39.125Z,30.14
2018-04-19T14:42:06.765Z,29.82
2018-04-19T14:44:34.407Z,29.72
2018-04-19T14:47:02.033Z,29.78
2018-04-19T14:49:29.685Z,29.95
2018-04-19T14:51:57.290Z,29.59
2018-04-19T14:54:24.968Z,29.44
2018-04-19T14:56:52.581Z,29.57
2018-04-19T14:59:20.282Z,29.96
2018-04-19T15:01:47.908Z,30.47
2018-04-19T15:04:15.571Z,30.23
2018-04-19T15:06:43.175Z,30.55
2018-04-19T15:09:11.043Z,30.05
2018-04-19T15:11:38.913Z,30.15
2018-04-19T15:14:06.783Z,30.19
2018-04-19T15:16:34.515Z,29.94
2018-04-19T15:19:02.305Z,30.24
2018-04-19T15:21:30.273Z,29.88
2018-04-19T15:23:58.113Z,29.76
2018-04-19T15:26:25.906Z,30.02
2018-04-19T15:28:53.724Z,30.21
2018-04-19T15:31:21.455Z,30.07
2018-04-19T15:33:49.302Z,29.86
2018-04-19T15:36:17.040Z,29.75
2018-04-19T15:38:44.831Z,29.55
2018-04-19T15:41:12.680Z,29.33
2018-04-19T15:43:40.427Z,29.27
2018-04-19T15:46:08.229Z,29.10
2018-04-19T15:48:35.995Z,28.92
2018-04-19T15:51:03.605Z,28.80
2018-04-19T15:53:31.254Z,28.74
2018-04-19T15:55:58.889Z,28.61
2018-04-19T15:58:26.743Z,28.51
2018-04-19T16:00:54.509Z,28.54
2018-04-19T16:03:22.378Z,28.52
2018-04-19T16:05:50.140Z,28.47
2018-04-19T16:08:18.026Z,28.45
2018-04-19T16:10:45.874Z,28.44
2018-04-19T16:13:13.849Z,28.47
2018-04-19T16:15:41.607Z,28.45
2018-04-19T16:18:09.582Z,28.09
2018-04-19T16:20:37.334Z,28.34
2018-04-19T16:23:05.102Z,28.32
2018-04-19T16:25:32.974Z,28.26
2018-04-19T16:28:00.735Z,28.20
2018-04-19T16:30:28.501Z,28.23
2018-04-19T16:32:56.184Z,28.19
2018-04-19T16:35:24.031Z,28.05
2018-04-19T16:37:51.897Z,28.10
2018-04-19T16:40:19.660Z,28.19
2018-04-19T16:42:47.536Z,28.00
2018-04-19T16:45:15.393Z,28.04
2018-04-19T16:47:43.156Z,27.99
2018-04-19T16:50:11.047Z,27.92
2018-04-19T16:52:38.788Z,27.86
2018-04-19T16:55:06.450Z,27.82
2018-04-19T16:57:34.071Z,27.83
2018-04-19T17:00:01.719Z,27.81
2018-04-19T17:02:29.441Z,27.83
2018-04-19T17:04:57.304Z,27.69
2018-04-19T17:07:25.069Z,27.51
2018-04-19T17:09:52.835Z,27.53
2018-04-19T17:12:20.601Z,27.38
2018-04-19T17:14:48.388Z,27.33
2018-04-19T17:17:16.120Z,27.21
2018-04-19T17:19:43.892Z,27.24
2018-04-19T17:22:12.479Z,27.14
2018-04-19T17:24:40.288Z,27.02
2018-04-19T17:27:08.106Z,26.89
2018-04-19T17:29:35.937Z,26.88
2018-04-19T17:32:03.840Z,26.81
2018-04-19T17:34:31.539Z,26.58
2018-04-19T17:36:59.266Z,26.27
2018-04-19T17:39:27.134Z,26.07
2018-04-19T17:41:54.857Z,26.04
2018-04-19T17:44:22.631Z,25.97
2018-04-19T17:46:50.326Z,25.88
2018-04-19T17:49:17.978Z,25.86
2018-04-19T17:51:45.697Z,25.77
2018-04-19T17:54:13.520Z,25.78
2018-04-19T17:56:41.385Z,25.91
2018-04-19T17:59:09.109Z,25.47
2018-04-19T18:01:36.919Z,25.38
2018-04-19T18:04:04.675Z,25.35
2018-04-19T18:06:32.367Z,25.38
2018-04-19T18:08:59.979Z,25.31
2018-04-19T18:11:27.628Z,24.96
2018-04-19T18:13:55.234Z,24.96
2018-04-19T18:16:22.912Z,24.91
2018-04-19T18:18:50.579Z,24.54
2018-04-19T18:21:18.412Z,24.48
2018-04-19T18:23:46.075Z,24.32
2018-04-19T18:26:13.831Z,24.38
2018-04-19T18:28:41.552Z,24.04
2018-04-19T18:31:09.275Z,23.81
2018-04-19T18:33:37.135Z,23.55
2018-04-19T18:36:04.897Z,23.72
2018-04-19T18:38:32.764Z,23.52
2018-04-19T18:41:00.529Z,23.38
2018-04-19T18:43:28.400Z,23.41
2018-04-19T18:45:56.124Z,23.39
2018-04-19T18:48:23.925Z,23.35
2018-04-19T18:50:51.690Z,23.51
2018-04-19T18:53:20.114Z,23.16
2018-04-19T18:55:47.889Z,23.10
2018-04-19T18:58:15.703Z,23.19
2018-04-19T19:00:43.465Z,23.26
2018-04-19T19:03:11.354Z,22.96
2018-04-19T19:05:39.097Z,22.87
2018-04-19T19:08:06.862Z,22.80
2018-04-19T19:10:34.620Z,22.71
2018-04-19T19:13:02.393Z,22.68
2018-04-19T19:18:57.887Z,22.45
2018-04-19T19:21:25.653Z,22.46
2018-04-19T19:23:53.545Z,22.34
2018-04-19T19:26:21.493Z,22.25
2018-04-19T19:28:49.376Z,22.36
2018-04-19T19:31:17.182Z,22.31
2018-04-19T19:33:44.998Z,22.29
2018-04-19T19:36:12.869Z,22.24
2018-04-19T19:38:40.731Z,22.17
2018-04-19T19:41:08.603Z,22.08
2018-04-19T19:43:36.672Z,22.05
2018-04-19T19:46:04.402Z,22.22
2018-04-19T19:48:32.102Z,22.26
2018-04-19T19:50:59.939Z,22.07
2018-04-19T19:53:27.737Z,21.93
2018-04-19T19:55:55.519Z,21.88
2018-04-19T19:58:23.478Z,21.94
2018-04-19T20:00:51.237Z,22.08
2018-04-19T20:03:19.004Z,21.89
2018-04-19T20:05:46.937Z,22.05
2018-04-19T20:08:14.745Z,22.11
2018-04-19T20:10:42.576Z,21.84
2018-04-19T20:13:10.378Z,21.51
2018-04-19T20:15:38.207Z,21.55
2018-04-19T20:18:06.020Z,21.54
2018-04-19T20:20:33.880Z,21.46
2018-04-19T20:23:01.608Z,21.58
2018-04-19T20:25:29.411Z,21.89
2018-04-19T20:27:57.141Z,21.74
2018-04-19T20:30:24.947Z,21.54
2018-04-19T20:32:52.776Z,21.44
2018-04-19T20:35:20.684Z,21.70
2018-04-19T20:37:48.444Z,21.63
2018-04-19T20:40:16.316Z,21.56
2018-04-19T20:42:44.078Z,21.44
2018-04-19T20:45:11.948Z,21.35
2018-04-19T20:47:39.676Z,21.45
2018-04-19T20:50:07.387Z,21.05
2018-04-19T20:52:35.115Z,21.32
2018-04-19T20:55:02.807Z,21.00
2018-04-19T20:57:30.469Z,21.02
2018-04-19T20:59:58.176Z,20.85
2018-04-19T21:02:25.828Z,21.00
2018-04-19T21:04:53.596Z,20.97
2018-04-19T21:07:21.251Z,20.83
2018-04-19T21:09:48.979Z,20.75
2018-04-19T21:12:16.669Z,20.72
2018-04-19T21:14:44.389Z,20.61
2018-04-19T21:17:12.088Z,20.43
2018-04-19T21:19:39.841Z,20.49
2018-04-19T21:22:07.498Z,20.33
2018-04-19T21:24:35.213Z,20.05
2018-04-19T21:27:02.951Z,20.25
2018-04-19T21:29:30.673Z,20.11
2018-04-19T21:31:58.308Z,20.19
2018-04-19T21:34:26.005Z,20.06
2018-04-19T21:36:53.669Z,19.95
2018-04-19T21:39:21.316Z,19.97
2018-04-19T21:41:49.001Z,19.95
2018-04-19T21:44:16.640Z,19.47
2018-04-19T21:46:44.364Z,19.61
2018-04-19T21:49:12.010Z,19.55
2018-04-19T21:51:39.729Z,19.48
2018-04-19T21:54:07.375Z,19.46
2018-04-19T21:56:35.097Z,19.55
2018-04-19T21:59:02.781Z,19.40
2018-04-19T22:01:30.476Z,19.33
2018-04-19T22:03:58.113Z,19.12
2018-04-19T22:06:25.791Z,18.77
2018-04-19T22:08:53.504Z,18.57
2018-04-19T22:11:21.202Z,18.84
2018-04-19T22:13:48.871Z,18.95
2018-04-19T22:16:16.541Z,18.92
2018-04-19T22:18:44.205Z,18.87
2018-04-19T22:21:11.873Z,18.89
2018-04-19T22:23:40.770Z,18.64
2018-04-19T22:26:08.487Z,18.77
2018-04-19T22:28:36.162Z,18.52
2018-04-19T22:31:03.871Z,18.63
2018-04-19T22:33:31.535Z,18.65
2018-04-19T22:35:59.234Z,18.72
2018-04-19T22:38:26.892Z,18.61
2018-04-19T22:40:54.614Z,18.31
2018-04-19T22:43:28.733Z,18.25
2018-04-19T22:45:56.484Z,18.18
2018-04-19T22:48:24.147Z,18.27
2018-04-19T22:50:51.999Z,18.15
2018-04-19T22:53:39.711Z,18.22
2018-04-19T22:56:07.610Z,17.94
2018-04-19T22:58:35.256Z,18.03
2018-04-19T23:01:02.973Z,17.97
2018-04-19T23:03:30.639Z,18.06
2018-04-19T23:05:58.320Z,17.98
2018-04-19T23:08:26.007Z,17.93
2018-04-19T23:10:53.722Z,17.93
2018-04-19T23:13:21.404Z,17.79
2018-04-19T23:15:49.108Z,17.68
2018-04-19T23:18:16.761Z,17.67
2018-04-19T23:20:44.491Z,17.67
2018-04-19T23:23:12.161Z,17.65
2018-04-19T23:25:39.898Z,17.58
2018-04-19T23:28:07.527Z,17.60
2018-04-19T23:30:35.302Z,17.52
2018-04-19T23:33:02.998Z,17.51
2018-04-19T23:35:30.701Z,17.49
2018-04-19T23:37:58.360Z,17.55
2018-04-19T23:40:26.058Z,17.43
2018-04-19T23:42:53.721Z,17.34
2018-04-19T23:45:21.449Z,17.23
2018-04-19T23:47:49.082Z,17.35
2018-04-19T23:50:16.809Z,17.22
2018-04-19T23:52:44.460Z,17.25
2018-04-19T23:55:12.165Z,17.01
2018-04-19T23:57:39.852Z,17.10
